Weather at Koufonisi Heliport

Public forecast

Using degrees Celsius for public forecast. Weather courtesy of forecast.io.

Closest aviation weather report (METAR) to Koufonisi Heliport

Report is more than 2 hours old.

Closest report is Naxos Apollon Airport, 14.2 nm (26.2 km) NW.

2024/02/29 11:50 (retrieved 3 hours ago)

LGNX 291150Z 14011KT 9999 FEW025 19/10 Q1017

Closest aviation forecast (TAF) to Koufonisi Heliport

Closest forecast is Santorini Airport, 32.8 nm (60.7 km) S.

2024/02/29 12:12 (retrieved 2 hours ago)

TAF LGSR 291100Z 2912/0112 13020KT 9999 FEW018 SCT030 TEMPO 2912/0112 13025G35KT TEMPO 2918/2924 13025G42KT PROB30 0106/0112 5000 RA FEW016TCU BKN025